sensor_id;sensor_type;location;lat;lon;timestamp;P1;durP1;ratioP1;P2;durP2;ratioP2
9485;SDS011;4781;48.776;9.200;2023-02-15T00:00:15;23.73;;;16.40;;
9485;SDS011;4781;48.776;9.200;2023-02-15T00:02:44;26.90;;;17.02;;
9485;SDS011;4781;48.776;9.200;2023-02-15T00:05:13;27.87;;;18.02;;
9485;SDS011;4781;48.776;9.200;2023-02-15T00:07:41;25.43;;;16.77;;
9485;SDS011;4781;48.776;9.200;2023-02-15T00:10:10;24.80;;;15.83;;
9485;SDS011;4781;48.776;9.200;2023-02-15T00:12:38;26.73;;;16.40;;
9485;SDS011;4781;48.776;9.200;2023-02-15T00:15:07;25.32;;;17.23;;
9485;SDS011;4781;48.776;9.200;2023-02-15T00:17:37;26.87;;;16.85;;
9485;SDS011;4781;48.776;9.200;2023-02-15T00:20:05;24.77;;;16.85;;
9485;SDS011;4781;48.776;9.200;2023-02-15T00:22:34;26.33;;;17.40;;
9485;SDS011;4781;48.776;9.200;2023-02-15T00:25:04;26.20;;;17.27;;
9485;SDS011;4781;48.776;9.200;2023-02-15T00:27:33;26.73;;;16.65;;
9485;SDS011;4781;48.776;9.200;2023-02-15T00:30:01;25.82;;;16.55;;
9485;SDS011;4781;48.776;9.200;2023-02-15T00:32:31;25.82;;;17.00;;
9485;SDS011;4781;48.776;9.200;2023-02-15T00:34:59;25.15;;;17.12;;
9485;SDS011;4781;48.776;9.200;2023-02-15T00:37:28;28.67;;;17.62;;
9485;SDS011;4781;48.776;9.200;2023-02-15T00:39:56;28.00;;;18.52;;
9485;SDS011;4781;48.776;9.200;2023-02-15T00:42:24;29.63;;;18.35;;
9485;SDS011;4781;48.776;9.200;2023-02-15T00:44:53;28.67;;;19.77;;
9485;SDS011;4781;48.776;9.200;2023-02-15T00:47:21;28.90;;;17.98;;
9485;SDS011;4781;48.776;9.200;2023-02-15T00:49:51;27.17;;;18.65;;
9485;SDS011;4781;48.776;9.200;2023-02-15T00:52:19;29.65;;;19.77;;
9485;SDS011;4781;48.776;9.200;2023-02-15T00:54:47;30.92;;;20.23;;
9485;SDS011;4781;48.776;9.200;2023-02-15T00:57:16;29.52;;;19.48;;
9485;SDS011;4781;48.776;9.200;2023-02-15T00:59:44;33.65;;;20.30;;
9485;SDS011;4781;48.776;9.200;2023-02-15T01:02:12;30.37;;;19.02;;
9485;SDS011;4781;48.776;9.200;2023-02-15T01:04:41;29.18;;;19.40;;
9485;SDS011;4781;48.776;9.200;2023-02-15T01:07:09;30.35;;;18.37;;
9485;SDS011;4781;48.776;9.200;2023-02-15T01:09:38;27.67;;;18.67;;
9485;SDS011;4781;48.776;9.200;2023-02-15T01:12:06;27.20;;;18.10;;
9485;SDS011;4781;48.776;9.200;2023-02-15T01:14:34;29.90;;;18.02;;
9485;SDS011;4781;48.776;9.200;2023-02-15T01:17:03;28.23;;;18.30;;
9485;SDS011;4781;48.776;9.200;2023-02-15T01:19:31;29.65;;;18.77;;
9485;SDS011;4781;48.776;9.200;2023-02-15T01:22:00;29.20;;;18.90;;
9485;SDS011;4781;48.776;9.200;2023-02-15T01:24:29;29.90;;;18.57;;
9485;SDS011;4781;48.776;9.200;2023-02-15T01:26:57;26.40;;;17.60;;
9485;SDS011;4781;48.776;9.200;2023-02-15T01:29:26;28.20;;;17.50;;
9485;SDS011;4781;48.776;9.200;2023-02-15T01:31:54;26.62;;;17.77;;
9485;SDS011;4781;48.776;9.200;2023-02-15T01:34:22;25.12;;;17.07;;
9485;SDS011;4781;48.776;9.200;2023-02-15T01:36:51;26.07;;;16.42;;
9485;SDS011;4781;48.776;9.200;2023-02-15T01:39:19;30.05;;;17.77;;
9485;SDS011;4781;48.776;9.200;2023-02-15T01:41:48;27.80;;;18.57;;
9485;SDS011;4781;48.776;9.200;2023-02-15T01:47:37;28.27;;;17.62;;
9485;SDS011;4781;48.776;9.200;2023-02-15T01:50:22;27.05;;;17.85;;
9485;SDS011;4781;48.776;9.200;2023-02-15T01:53:13;28.35;;;17.55;;
9485;SDS011;4781;48.776;9.200;2023-02-15T01:55:57;29.02;;;17.95;;
9485;SDS011;4781;48.776;9.200;2023-02-15T01:58:37;27.77;;;17.65;;
9485;SDS011;4781;48.776;9.200;2023-02-15T02:01:07;27.35;;;18.02;;
9485;SDS011;4781;48.776;9.200;2023-02-15T02:06:31;27.35;;;17.02;;
9485;SDS011;4781;48.776;9.200;2023-02-15T02:09:02;28.77;;;18.42;;
9485;SDS011;4781;48.776;9.200;2023-02-15T02:11:31;30.23;;;19.62;;
9485;SDS011;4781;48.776;9.200;2023-02-15T02:14:00;27.48;;;17.77;;
9485;SDS011;4781;48.776;9.200;2023-02-15T02:35:23;30.43;;;17.93;;
9485;SDS011;4781;48.776;9.200;2023-02-15T02:40:52;29.95;;;19.23;;
9485;SDS011;4781;48.776;9.200;2023-02-15T02:46:24;26.70;;;17.62;;
9485;SDS011;4781;48.776;9.200;2023-02-15T02:49:00;29.45;;;18.55;;
9485;SDS011;4781;48.776;9.200;2023-02-15T02:51:29;28.12;;;18.25;;
9485;SDS011;4781;48.776;9.200;2023-02-15T02:53:58;29.07;;;17.87;;
9485;SDS011;4781;48.776;9.200;2023-02-15T02:56:36;27.10;;;17.87;;
9485;SDS011;4781;48.776;9.200;2023-02-15T02:59:11;27.55;;;18.17;;
9485;SDS011;4781;48.776;9.200;2023-02-15T03:01:50;25.10;;;17.05;;
9485;SDS011;4781;48.776;9.200;2023-02-15T03:04:37;28.70;;;17.48;;
9485;SDS011;4781;48.776;9.200;2023-02-15T03:07:14;30.97;;;18.48;;
9485;SDS011;4781;48.776;9.200;2023-02-15T03:09:48;31.62;;;18.70;;
9485;SDS011;4781;48.776;9.200;2023-02-15T03:15:07;29.02;;;18.82;;
9485;SDS011;4781;48.776;9.200;2023-02-15T03:17:47;28.47;;;18.20;;
9485;SDS011;4781;48.776;9.200;2023-02-15T03:20:16;28.32;;;18.17;;
9485;SDS011;4781;48.776;9.200;2023-02-15T03:23:00;28.27;;;18.12;;
9485;SDS011;4781;48.776;9.200;2023-02-15T03:25:35;28.38;;;18.20;;
9485;SDS011;4781;48.776;9.200;2023-02-15T03:28:11;26.42;;;17.55;;
9485;SDS011;4781;48.776;9.200;2023-02-15T03:30:46;29.55;;;17.90;;
9485;SDS011;4781;48.776;9.200;2023-02-15T03:33:24;27.87;;;17.73;;
9485;SDS011;4781;48.776;9.200;2023-02-15T03:35:58;29.63;;;17.77;;
9485;SDS011;4781;48.776;9.200;2023-02-15T03:38:43;29.98;;;18.40;;
9485;SDS011;4781;48.776;9.200;2023-02-15T03:41:07;28.17;;;17.82;;
9485;SDS011;4781;48.776;9.200;2023-02-15T03:43:49;28.83;;;17.80;;
9485;SDS011;4781;48.776;9.200;2023-02-15T03:46:24;32.85;;;18.57;;
9485;SDS011;4781;48.776;9.200;2023-02-15T03:49:17;26.48;;;17.73;;
9485;SDS011;4781;48.776;9.200;2023-02-15T03:51:45;29.82;;;18.77;;
9485;SDS011;4781;48.776;9.200;2023-02-15T03:54:17;28.12;;;18.17;;
9485;SDS011;4781;48.776;9.200;2023-02-15T03:57:07;32.75;;;18.82;;
9485;SDS011;4781;48.776;9.200;2023-02-15T04:00:00;28.57;;;18.12;;
9485;SDS011;4781;48.776;9.200;2023-02-15T04:02:52;26.65;;;17.90;;
9485;SDS011;4781;48.776;9.200;2023-02-15T04:05:22;29.95;;;17.95;;
9485;SDS011;4781;48.776;9.200;2023-02-15T04:07:50;30.68;;;18.48;;
9485;SDS011;4781;48.776;9.200;2023-02-15T04:10:19;30.77;;;18.98;;
9485;SDS011;4781;48.776;9.200;2023-02-15T04:13:05;29.18;;;18.75;;
9485;SDS011;4781;48.776;9.200;2023-02-15T04:15:33;29.67;;;19.70;;
9485;SDS011;4781;48.776;9.200;2023-02-15T04:18:19;31.20;;;18.62;;
9485;SDS011;4781;48.776;9.200;2023-02-15T04:20:49;31.62;;;19.25;;
9485;SDS011;4781;48.776;9.200;2023-02-15T04:23:35;34.38;;;19.35;;
9485;SDS011;4781;48.776;9.200;2023-02-15T04:26:21;31.62;;;18.57;;
9485;SDS011;4781;48.776;9.200;2023-02-15T04:28:50;30.30;;;18.42;;
9485;SDS011;4781;48.776;9.200;2023-02-15T04:31:18;29.07;;;18.55;;
9485;SDS011;4781;48.776;9.200;2023-02-15T04:33:47;31.65;;;18.85;;
9485;SDS011;4781;48.776;9.200;2023-02-15T04:36:16;27.52;;;17.70;;
9485;SDS011;4781;48.776;9.200;2023-02-15T04:38:44;28.67;;;18.20;;
9485;SDS011;4781;48.776;9.200;2023-02-15T04:41:12;31.68;;;19.00;;
9485;SDS011;4781;48.776;9.200;2023-02-15T04:43:41;28.55;;;17.55;;
9485;SDS011;4781;48.776;9.200;2023-02-15T04:46:09;26.57;;;17.62;;
9485;SDS011;4781;48.776;9.200;2023-02-15T04:48:37;28.17;;;17.55;;
9485;SDS011;4781;48.776;9.200;2023-02-15T04:51:06;35.23;;;19.65;;
9485;SDS011;4781;48.776;9.200;2023-02-15T04:53:35;29.45;;;17.80;;
9485;SDS011;4781;48.776;9.200;2023-02-15T04:56:03;27.15;;;17.57;;
9485;SDS011;4781;48.776;9.200;2023-02-15T04:58:32;31.95;;;17.62;;
9485;SDS011;4781;48.776;9.200;2023-02-15T05:01:02;27.17;;;17.87;;
9485;SDS011;4781;48.776;9.200;2023-02-15T05:03:31;31.45;;;19.20;;
9485;SDS011;4781;48.776;9.200;2023-02-15T05:05:59;27.17;;;17.73;;
9485;SDS011;4781;48.776;9.200;2023-02-15T05:08:27;29.35;;;18.37;;
9485;SDS011;4781;48.776;9.200;2023-02-15T05:10:56;28.77;;;18.52;;
9485;SDS011;4781;48.776;9.200;2023-02-15T05:13:24;32.78;;;18.02;;
9485;SDS011;4781;48.776;9.200;2023-02-15T05:15:53;32.78;;;19.55;;
9485;SDS011;4781;48.776;9.200;2023-02-15T05:18:22;31.00;;;18.25;;
9485;SDS011;4781;48.776;9.200;2023-02-15T05:20:50;27.35;;;17.98;;
9485;SDS011;4781;48.776;9.200;2023-02-15T05:23:18;29.67;;;18.10;;
9485;SDS011;4781;48.776;9.200;2023-02-15T05:25:48;29.45;;;18.45;;
9485;SDS011;4781;48.776;9.200;2023-02-15T05:28:35;32.63;;;18.73;;
9485;SDS011;4781;48.776;9.200;2023-02-15T05:31:09;30.20;;;18.57;;
9485;SDS011;4781;48.776;9.200;2023-02-15T05:33:39;33.53;;;20.35;;
9485;SDS011;4781;48.776;9.200;2023-02-15T05:36:09;37.85;;;21.95;;
9485;SDS011;4781;48.776;9.200;2023-02-15T05:38:37;36.70;;;19.85;;
9485;SDS011;4781;48.776;9.200;2023-02-15T05:41:06;39.83;;;22.77;;
9485;SDS011;4781;48.776;9.200;2023-02-15T05:43:36;37.38;;;22.27;;
9485;SDS011;4781;48.776;9.200;2023-02-15T05:46:05;33.48;;;20.35;;
9485;SDS011;4781;48.776;9.200;2023-02-15T05:48:34;38.80;;;20.75;;
9485;SDS011;4781;48.776;9.200;2023-02-15T05:51:04;34.08;;;19.98;;
9485;SDS011;4781;48.776;9.200;2023-02-15T05:53:39;32.78;;;19.52;;
9485;SDS011;4781;48.776;9.200;2023-02-15T05:56:09;33.42;;;20.45;;
9485;SDS011;4781;48.776;9.200;2023-02-15T05:58:38;35.08;;;19.90;;
9485;SDS011;4781;48.776;9.200;2023-02-15T06:01:12;29.85;;;18.60;;
9485;SDS011;4781;48.776;9.200;2023-02-15T06:03:45;34.03;;;19.27;;
9485;SDS011;4781;48.776;9.200;2023-02-15T06:06:13;32.83;;;19.95;;
9485;SDS011;4781;48.776;9.200;2023-02-15T06:08:42;36.48;;;19.15;;
9485;SDS011;4781;48.776;9.200;2023-02-15T06:11:10;32.25;;;19.70;;
9485;SDS011;4781;48.776;9.200;2023-02-15T06:13:39;28.67;;;18.52;;
9485;SDS011;4781;48.776;9.200;2023-02-15T06:16:07;29.20;;;18.50;;
9485;SDS011;4781;48.776;9.200;2023-02-15T06:18:36;29.60;;;18.02;;
9485;SDS011;4781;48.776;9.200;2023-02-15T06:21:04;32.55;;;18.95;;
9485;SDS011;4781;48.776;9.200;2023-02-15T06:23:32;30.37;;;19.12;;
9485;SDS011;4781;48.776;9.200;2023-02-15T06:26:01;35.73;;;21.07;;
9485;SDS011;4781;48.776;9.200;2023-02-15T06:28:29;33.42;;;20.43;;
9485;SDS011;4781;48.776;9.200;2023-02-15T06:30:58;34.25;;;20.37;;
9485;SDS011;4781;48.776;9.200;2023-02-15T06:33:26;32.55;;;20.12;;
9485;SDS011;4781;48.776;9.200;2023-02-15T06:35:56;31.70;;;19.55;;
9485;SDS011;4781;48.776;9.200;2023-02-15T06:38:24;33.60;;;18.55;;
9485;SDS011;4781;48.776;9.200;2023-02-15T06:40:53;29.32;;;19.00;;
9485;SDS011;4781;48.776;9.200;2023-02-15T06:43:21;37.30;;;22.00;;
9485;SDS011;4781;48.776;9.200;2023-02-15T06:45:49;37.48;;;21.60;;
9485;SDS011;4781;48.776;9.200;2023-02-15T06:48:18;35.80;;;21.02;;
9485;SDS011;4781;48.776;9.200;2023-02-15T06:50:46;33.60;;;18.80;;
9485;SDS011;4781;48.776;9.200;2023-02-15T06:53:15;33.35;;;19.92;;
9485;SDS011;4781;48.776;9.200;2023-02-15T06:55:43;35.23;;;22.42;;
9485;SDS011;4781;48.776;9.200;2023-02-15T06:58:11;34.98;;;20.72;;
9485;SDS011;4781;48.776;9.200;2023-02-15T07:00:40;34.73;;;20.55;;
9485;SDS011;4781;48.776;9.200;2023-02-15T07:03:08;35.63;;;21.45;;
9485;SDS011;4781;48.776;9.200;2023-02-15T07:05:38;38.78;;;20.85;;
9485;SDS011;4781;48.776;9.200;2023-02-15T07:08:06;34.13;;;19.90;;
9485;SDS011;4781;48.776;9.200;2023-02-15T07:10:35;38.78;;;20.88;;
9485;SDS011;4781;48.776;9.200;2023-02-15T07:13:03;34.63;;;20.88;;
9485;SDS011;4781;48.776;9.200;2023-02-15T07:15:32;37.40;;;21.02;;
9485;SDS011;4781;48.776;9.200;2023-02-15T07:18:00;35.80;;;20.95;;
9485;SDS011;4781;48.776;9.200;2023-02-15T07:20:28;39.70;;;20.52;;
9485;SDS011;4781;48.776;9.200;2023-02-15T07:22:58;35.28;;;20.55;;
9485;SDS011;4781;48.776;9.200;2023-02-15T07:25:27;42.00;;;21.33;;
9485;SDS011;4781;48.776;9.200;2023-02-15T07:27:59;34.45;;;20.27;;
9485;SDS011;4781;48.776;9.200;2023-02-15T07:30:29;34.08;;;20.30;;
9485;SDS011;4781;48.776;9.200;2023-02-15T07:32:58;37.58;;;22.30;;
9485;SDS011;4781;48.776;9.200;2023-02-15T07:35:56;31.57;;;19.10;;
9485;SDS011;4781;48.776;9.200;2023-02-15T07:38:25;35.40;;;19.12;;
9485;SDS011;4781;48.776;9.200;2023-02-15T07:41:06;34.85;;;19.55;;
9485;SDS011;4781;48.776;9.200;2023-02-15T07:46:08;31.27;;;18.20;;
9485;SDS011;4781;48.776;9.200;2023-02-15T07:48:39;34.65;;;19.70;;
9485;SDS011;4781;48.776;9.200;2023-02-15T07:51:10;33.48;;;19.65;;
9485;SDS011;4781;48.776;9.200;2023-02-15T07:53:40;36.17;;;21.25;;
9485;SDS011;4781;48.776;9.200;2023-02-15T07:56:09;32.42;;;19.10;;
9485;SDS011;4781;48.776;9.200;2023-02-15T07:58:39;33.18;;;19.87;;
9485;SDS011;4781;48.776;9.200;2023-02-15T08:01:17;34.10;;;21.35;;
9485;SDS011;4781;48.776;9.200;2023-02-15T08:03:48;33.18;;;20.23;;
9485;SDS011;4781;48.776;9.200;2023-02-15T08:06:17;40.40;;;20.70;;
9485;SDS011;4781;48.776;9.200;2023-02-15T08:08:46;35.20;;;20.75;;
9485;SDS011;4781;48.776;9.200;2023-02-15T08:11:16;36.80;;;20.52;;
9485;SDS011;4781;48.776;9.200;2023-02-15T08:13:58;32.93;;;19.67;;
9485;SDS011;4781;48.776;9.200;2023-02-15T08:16:36;32.78;;;19.92;;
9485;SDS011;4781;48.776;9.200;2023-02-15T08:19:20;37.55;;;20.25;;
9485;SDS011;4781;48.776;9.200;2023-02-15T08:24:29;35.75;;;21.15;;
9485;SDS011;4781;48.776;9.200;2023-02-15T08:27:02;38.40;;;22.30;;
9485;SDS011;4781;48.776;9.200;2023-02-15T08:29:33;35.68;;;21.50;;
9485;SDS011;4781;48.776;9.200;2023-02-15T08:32:04;35.13;;;21.33;;
9485;SDS011;4781;48.776;9.200;2023-02-15T08:34:36;37.65;;;21.93;;
9485;SDS011;4781;48.776;9.200;2023-02-15T08:37:07;37.35;;;22.00;;
9485;SDS011;4781;48.776;9.200;2023-02-15T08:39:36;39.60;;;23.30;;
9485;SDS011;4781;48.776;9.200;2023-02-15T08:42:04;45.78;;;23.87;;
9485;SDS011;4781;48.776;9.200;2023-02-15T08:44:33;41.42;;;23.77;;
9485;SDS011;4781;48.776;9.200;2023-02-15T08:47:01;41.05;;;23.47;;
9485;SDS011;4781;48.776;9.200;2023-02-15T08:49:30;35.30;;;22.45;;
9485;SDS011;4781;48.776;9.200;2023-02-15T08:51:58;39.75;;;23.07;;
9485;SDS011;4781;48.776;9.200;2023-02-15T08:54:27;35.73;;;22.73;;
9485;SDS011;4781;48.776;9.200;2023-02-15T08:56:55;34.38;;;22.58;;
9485;SDS011;4781;48.776;9.200;2023-02-15T08:59:24;35.73;;;22.87;;
9485;SDS011;4781;48.776;9.200;2023-02-15T09:01:53;37.17;;;22.13;;
9485;SDS011;4781;48.776;9.200;2023-02-15T09:04:29;32.35;;;21.15;;
9485;SDS011;4781;48.776;9.200;2023-02-15T09:06:57;36.45;;;20.82;;
9485;SDS011;4781;48.776;9.200;2023-02-15T09:09:25;38.50;;;21.30;;
9485;SDS011;4781;48.776;9.200;2023-02-15T09:11:54;35.80;;;22.05;;
9485;SDS011;4781;48.776;9.200;2023-02-15T09:14:22;35.30;;;20.82;;
9485;SDS011;4781;48.776;9.200;2023-02-15T09:16:52;38.05;;;22.20;;
9485;SDS011;4781;48.776;9.200;2023-02-15T09:19:22;33.80;;;20.55;;
9485;SDS011;4781;48.776;9.200;2023-02-15T09:21:51;38.65;;;21.82;;
9485;SDS011;4781;48.776;9.200;2023-02-15T09:24:20;37.40;;;22.13;;
9485;SDS011;4781;48.776;9.200;2023-02-15T09:26:48;35.25;;;21.15;;
9485;SDS011;4781;48.776;9.200;2023-02-15T09:29:17;33.35;;;20.88;;
9485;SDS011;4781;48.776;9.200;2023-02-15T09:31:47;33.48;;;21.20;;
9485;SDS011;4781;48.776;9.200;2023-02-15T09:34:20;33.02;;;20.32;;
9485;SDS011;4781;48.776;9.200;2023-02-15T09:36:49;33.70;;;20.32;;
9485;SDS011;4781;48.776;9.200;2023-02-15T09:39:24;32.45;;;20.48;;
9485;SDS011;4781;48.776;9.200;2023-02-15T09:41:56;34.92;;;21.50;;
9485;SDS011;4781;48.776;9.200;2023-02-15T09:47:39;37.58;;;21.20;;
9485;SDS011;4781;48.776;9.200;2023-02-15T09:50:28;31.48;;;20.15;;
9485;SDS011;4781;48.776;9.200;2023-02-15T10:01:30;34.50;;;22.05;;
9485;SDS011;4781;48.776;9.200;2023-02-15T10:16:52;37.33;;;22.60;;
9485;SDS011;4781;48.776;9.200;2023-02-15T10:22:18;31.75;;;20.95;;
9485;SDS011;4781;48.776;9.200;2023-02-15T10:28:04;32.65;;;21.00;;
9485;SDS011;4781;48.776;9.200;2023-02-15T10:30:43;34.78;;;21.87;;
9485;SDS011;4781;48.776;9.200;2023-02-15T10:33:27;34.75;;;22.22;;
9485;SDS011;4781;48.776;9.200;2023-02-15T10:36:01;31.25;;;22.65;;
9485;SDS011;4781;48.776;9.200;2023-02-15T10:38:52;33.02;;;22.20;;
9485;SDS011;4781;48.776;9.200;2023-02-15T10:44:31;33.25;;;21.12;;
9485;SDS011;4781;48.776;9.200;2023-02-15T10:47:30;33.33;;;20.95;;
9485;SDS011;4781;48.776;9.200;2023-02-15T10:50:48;32.60;;;21.87;;
9485;SDS011;4781;48.776;9.200;2023-02-15T11:04:53;31.15;;;20.20;;
9485;SDS011;4781;48.776;9.200;2023-02-15T11:07:49;29.82;;;20.37;;
9485;SDS011;4781;48.776;9.200;2023-02-15T11:10:32;33.02;;;20.75;;
9485;SDS011;4781;48.776;9.200;2023-02-15T11:13:18;31.12;;;20.43;;
9485;SDS011;4781;48.776;9.200;2023-02-15T11:15:55;29.55;;;19.87;;
9485;SDS011;4781;48.776;9.200;2023-02-15T11:18:39;29.20;;;21.35;;
9485;SDS011;4781;48.776;9.200;2023-02-15T11:21:17;33.02;;;19.80;;
9485;SDS011;4781;48.776;9.200;2023-02-15T11:23:53;27.98;;;20.15;;
9485;SDS011;4781;48.776;9.200;2023-02-15T11:29:25;31.77;;;21.12;;
9485;SDS011;4781;48.776;9.200;2023-02-15T11:34:53;30.60;;;20.92;;
9485;SDS011;4781;48.776;9.200;2023-02-15T11:37:46;30.45;;;20.20;;
9485;SDS011;4781;48.776;9.200;2023-02-15T11:40:29;33.00;;;19.80;;
9485;SDS011;4781;48.776;9.200;2023-02-15T11:43:05;25.97;;;18.95;;
9485;SDS011;4781;48.776;9.200;2023-02-15T11:45:39;29.67;;;19.37;;
9485;SDS011;4781;48.776;9.200;2023-02-15T11:48:12;29.70;;;19.95;;
9485;SDS011;4781;48.776;9.200;2023-02-15T11:50:43;32.58;;;20.17;;
9485;SDS011;4781;48.776;9.200;2023-02-15T11:53:16;30.55;;;19.32;;
9485;SDS011;4781;48.776;9.200;2023-02-15T11:55:49;28.55;;;20.15;;
9485;SDS011;4781;48.776;9.200;2023-02-15T12:01:01;28.23;;;19.75;;
9485;SDS011;4781;48.776;9.200;2023-02-15T12:06:22;28.47;;;20.25;;
9485;SDS011;4781;48.776;9.200;2023-02-15T12:09:30;29.87;;;19.70;;
9485;SDS011;4781;48.776;9.200;2023-02-15T12:12:21;26.57;;;18.20;;
9485;SDS011;4781;48.776;9.200;2023-02-15T12:15:04;29.15;;;19.32;;
9485;SDS011;4781;48.776;9.200;2023-02-15T12:17:35;28.62;;;19.17;;
9485;SDS011;4781;48.776;9.200;2023-02-15T12:20:31;29.48;;;20.25;;
9485;SDS011;4781;48.776;9.200;2023-02-15T12:25:39;29.07;;;19.20;;
9485;SDS011;4781;48.776;9.200;2023-02-15T12:30:59;27.70;;;19.52;;
9485;SDS011;4781;48.776;9.200;2023-02-15T12:33:54;28.92;;;19.90;;
9485;SDS011;4781;48.776;9.200;2023-02-15T12:36:25;27.70;;;18.52;;
9485;SDS011;4781;48.776;9.200;2023-02-15T12:44:35;27.02;;;20.57;;
9485;SDS011;4781;48.776;9.200;2023-02-15T12:47:04;31.20;;;20.75;;
9485;SDS011;4781;48.776;9.200;2023-02-15T12:49:37;29.05;;;20.55;;
9485;SDS011;4781;48.776;9.200;2023-02-15T12:52:13;31.10;;;20.35;;
9485;SDS011;4781;48.776;9.200;2023-02-15T12:54:48;34.48;;;21.33;;
9485;SDS011;4781;48.776;9.200;2023-02-15T12:57:21;30.48;;;20.20;;
9485;SDS011;4781;48.776;9.200;2023-02-15T12:59:57;29.92;;;20.65;;
9485;SDS011;4781;48.776;9.200;2023-02-15T13:02:41;33.10;;;20.87;;
9485;SDS011;4781;48.776;9.200;2023-02-15T13:05:21;30.72;;;20.70;;
9485;SDS011;4781;48.776;9.200;2023-02-15T13:07:54;30.95;;;21.33;;
9485;SDS011;4781;48.776;9.200;2023-02-15T13:10:29;28.15;;;20.85;;
9485;SDS011;4781;48.776;9.200;2023-02-15T13:13:08;28.65;;;20.68;;
9485;SDS011;4781;48.776;9.200;2023-02-15T13:15:46;29.60;;;21.12;;
9485;SDS011;4781;48.776;9.200;2023-02-15T13:18:32;41.77;;;20.48;;
9485;SDS011;4781;48.776;9.200;2023-02-15T13:21:09;40.55;;;21.50;;
9485;SDS011;4781;48.776;9.200;2023-02-15T13:23:47;27.13;;;20.00;;
9485;SDS011;4781;48.776;9.200;2023-02-15T13:26:25;28.02;;;19.77;;
9485;SDS011;4781;48.776;9.200;2023-02-15T13:29:04;31.23;;;20.45;;
9485;SDS011;4781;48.776;9.200;2023-02-15T13:31:36;30.95;;;19.57;;
9485;SDS011;4781;48.776;9.200;2023-02-15T13:34:09;29.87;;;19.20;;
9485;SDS011;4781;48.776;9.200;2023-02-15T13:39:54;30.40;;;21.00;;
9485;SDS011;4781;48.776;9.200;2023-02-15T13:43:05;31.52;;;20.10;;
9485;SDS011;4781;48.776;9.200;2023-02-15T13:45:54;29.23;;;20.20;;
9485;SDS011;4781;48.776;9.200;2023-02-15T13:48:57;32.67;;;20.52;;
9485;SDS011;4781;48.776;9.200;2023-02-15T13:51:58;31.93;;;20.65;;
9485;SDS011;4781;48.776;9.200;2023-02-15T14:01:00;28.25;;;20.68;;
9485;SDS011;4781;48.776;9.200;2023-02-15T14:07:16;32.60;;;20.17;;
9485;SDS011;4781;48.776;9.200;2023-02-15T14:10:26;28.12;;;19.80;;
9485;SDS011;4781;48.776;9.200;2023-02-15T14:13:38;26.87;;;19.75;;
9485;SDS011;4781;48.776;9.200;2023-02-15T14:25:23;32.17;;;19.37;;
9485;SDS011;4781;48.776;9.200;2023-02-15T14:28:09;31.70;;;20.00;;
9485;SDS011;4781;48.776;9.200;2023-02-15T14:30:49;26.12;;;19.42;;
9485;SDS011;4781;48.776;9.200;2023-02-15T14:33:25;27.45;;;19.10;;
9485;SDS011;4781;48.776;9.200;2023-02-15T14:36:00;29.75;;;19.67;;
9485;SDS011;4781;48.776;9.200;2023-02-15T14:38:36;32.42;;;19.98;;
9485;SDS011;4781;48.776;9.200;2023-02-15T14:41:09;28.00;;;19.67;;
9485;SDS011;4781;48.776;9.200;2023-02-15T14:46:36;27.00;;;18.95;;
9485;SDS011;4781;48.776;9.200;2023-02-15T14:49:21;28.47;;;19.55;;
9485;SDS011;4781;48.776;9.200;2023-02-15T14:52:00;25.02;;;17.48;;
9485;SDS011;4781;48.776;9.200;2023-02-15T14:59:55;25.88;;;18.20;;
9485;SDS011;4781;48.776;9.200;2023-02-15T15:02:27;26.40;;;17.10;;
9485;SDS011;4781;48.776;9.200;2023-02-15T15:05:15;25.25;;;18.05;;
9485;SDS011;4781;48.776;9.200;2023-02-15T15:07:59;25.65;;;17.85;;
9485;SDS011;4781;48.776;9.200;2023-02-15T15:10:41;26.90;;;18.35;;
9485;SDS011;4781;48.776;9.200;2023-02-15T15:18:58;30.27;;;19.42;;
9485;SDS011;4781;48.776;9.200;2023-02-15T15:38:52;24.67;;;17.90;;
9485;SDS011;4781;48.776;9.200;2023-02-15T15:41:55;26.15;;;18.65;;
9485;SDS011;4781;48.776;9.200;2023-02-15T15:47:47;26.77;;;17.87;;
9485;SDS011;4781;48.776;9.200;2023-02-15T15:50:25;27.45;;;18.02;;
9485;SDS011;4781;48.776;9.200;2023-02-15T15:52:58;26.60;;;18.02;;
9485;SDS011;4781;48.776;9.200;2023-02-15T15:55:29;25.68;;;18.37;;
9485;SDS011;4781;48.776;9.200;2023-02-15T15:58:00;28.90;;;19.25;;
9485;SDS011;4781;48.776;9.200;2023-02-15T16:00:39;26.60;;;17.90;;
9485;SDS011;4781;48.776;9.200;2023-02-15T16:03:17;31.52;;;18.87;;
9485;SDS011;4781;48.776;9.200;2023-02-15T16:05:51;30.37;;;17.95;;
9485;SDS011;4781;48.776;9.200;2023-02-15T16:08:29;28.17;;;17.75;;
9485;SDS011;4781;48.776;9.200;2023-02-15T16:11:23;22.95;;;17.00;;
9485;SDS011;4781;48.776;9.200;2023-02-15T16:13:50;24.15;;;17.73;;
9485;SDS011;4781;48.776;9.200;2023-02-15T16:16:23;26.42;;;18.37;;
9485;SDS011;4781;48.776;9.200;2023-02-15T16:21:27;26.37;;;17.90;;
9485;SDS011;4781;48.776;9.200;2023-02-15T16:24:08;29.50;;;18.32;;
9485;SDS011;4781;48.776;9.200;2023-02-15T16:27:18;27.95;;;18.07;;
9485;SDS011;4781;48.776;9.200;2023-02-15T16:30:18;26.05;;;17.67;;
9485;SDS011;4781;48.776;9.200;2023-02-15T16:32:54;24.90;;;18.45;;
9485;SDS011;4781;48.776;9.200;2023-02-15T16:35:55;29.70;;;17.47;;
9485;SDS011;4781;48.776;9.200;2023-02-15T16:41:16;28.92;;;17.90;;
9485;SDS011;4781;48.776;9.200;2023-02-15T16:43:54;26.87;;;17.82;;
9485;SDS011;4781;48.776;9.200;2023-02-15T16:46:27;26.35;;;17.87;;
9485;SDS011;4781;48.776;9.200;2023-02-15T16:49:18;24.12;;;18.05;;
9485;SDS011;4781;48.776;9.200;2023-02-15T16:51:54;23.47;;;17.05;;
9485;SDS011;4781;48.776;9.200;2023-02-15T16:54:34;28.20;;;17.42;;
9485;SDS011;4781;48.776;9.200;2023-02-15T16:57:03;30.27;;;18.00;;
9485;SDS011;4781;48.776;9.200;2023-02-15T17:02:27;25.80;;;18.73;;
9485;SDS011;4781;48.776;9.200;2023-02-15T17:11:03;28.67;;;18.15;;
9485;SDS011;4781;48.776;9.200;2023-02-15T17:16:50;28.02;;;18.48;;
9485;SDS011;4781;48.776;9.200;2023-02-15T17:19:29;31.15;;;19.50;;
9485;SDS011;4781;48.776;9.200;2023-02-15T17:22:22;29.80;;;20.12;;
9485;SDS011;4781;48.776;9.200;2023-02-15T17:25:00;30.25;;;22.73;;
9485;SDS011;4781;48.776;9.200;2023-02-15T17:27:30;28.57;;;20.92;;
9485;SDS011;4781;48.776;9.200;2023-02-15T17:30:01;30.80;;;21.25;;
9485;SDS011;4781;48.776;9.200;2023-02-15T17:32:52;33.18;;;20.90;;
9485;SDS011;4781;48.776;9.200;2023-02-15T17:35:30;30.62;;;19.70;;
9485;SDS011;4781;48.776;9.200;2023-02-15T17:38:06;29.37;;;20.25;;
9485;SDS011;4781;48.776;9.200;2023-02-15T17:40:47;31.27;;;20.32;;
9485;SDS011;4781;48.776;9.200;2023-02-15T17:43:15;33.45;;;20.48;;
9485;SDS011;4781;48.776;9.200;2023-02-15T17:45:47;32.83;;;21.00;;
9485;SDS011;4781;48.776;9.200;2023-02-15T17:48:40;32.48;;;21.07;;
9485;SDS011;4781;48.776;9.200;2023-02-15T17:51:01;33.83;;;21.85;;
9485;SDS011;4781;48.776;9.200;2023-02-15T17:53:32;31.52;;;21.37;;
9485;SDS011;4781;48.776;9.200;2023-02-15T17:56:01;32.65;;;21.40;;
9485;SDS011;4781;48.776;9.200;2023-02-15T17:58:38;31.73;;;21.77;;
9485;SDS011;4781;48.776;9.200;2023-02-15T18:01:10;31.93;;;21.00;;
9485;SDS011;4781;48.776;9.200;2023-02-15T18:04:00;32.45;;;20.80;;
9485;SDS011;4781;48.776;9.200;2023-02-15T18:06:46;33.30;;;21.20;;
9485;SDS011;4781;48.776;9.200;2023-02-15T18:09:32;31.00;;;20.68;;
9485;SDS011;4781;48.776;9.200;2023-02-15T18:12:19;31.48;;;20.45;;
9485;SDS011;4781;48.776;9.200;2023-02-15T18:14:55;27.58;;;20.35;;
9485;SDS011;4781;48.776;9.200;2023-02-15T18:17:31;32.15;;;20.30;;
9485;SDS011;4781;48.776;9.200;2023-02-15T18:20:03;34.00;;;20.97;;
9485;SDS011;4781;48.776;9.200;2023-02-15T18:22:51;36.98;;;21.97;;
9485;SDS011;4781;48.776;9.200;2023-02-15T18:25:20;34.25;;;21.90;;
9485;SDS011;4781;48.776;9.200;2023-02-15T18:27:50;31.27;;;20.55;;
9485;SDS011;4781;48.776;9.200;2023-02-15T18:30:20;31.83;;;20.43;;
9485;SDS011;4781;48.776;9.200;2023-02-15T18:32:51;28.42;;;19.50;;